sensor_id;sensor_type;location;lat;lon;timestamp;P1;durP1;ratioP1;P2;durP2;ratioP2
9763;SDS011;4921;43.214;27.936;2023-02-28T00:00:50;3.80;;;3.47;;
9763;SDS011;4921;43.214;27.936;2023-02-28T00:03:17;3.83;;;3.50;;
9763;SDS011;4921;43.214;27.936;2023-02-28T00:05:44;3.70;;;3.50;;
9763;SDS011;4921;43.214;27.936;2023-02-28T00:08:11;3.20;;;3.10;;
9763;SDS011;4921;43.214;27.936;2023-02-28T00:10:38;3.50;;;3.30;;
9763;SDS011;4921;43.214;27.936;2023-02-28T00:13:05;3.67;;;3.47;;
9763;SDS011;4921;43.214;27.936;2023-02-28T00:15:34;3.53;;;3.23;;
9763;SDS011;4921;43.214;27.936;2023-02-28T00:18:01;3.50;;;3.30;;
9763;SDS011;4921;43.214;27.936;2023-02-28T00:20:28;3.77;;;3.13;;
9763;SDS011;4921;43.214;27.936;2023-02-28T00:22:55;3.10;;;2.90;;
9763;SDS011;4921;43.214;27.936;2023-02-28T00:25:23;2.93;;;2.77;;
9763;SDS011;4921;43.214;27.936;2023-02-28T00:27:51;3.60;;;3.40;;
9763;SDS011;4921;43.214;27.936;2023-02-28T00:30:19;3.63;;;3.23;;
9763;SDS011;4921;43.214;27.936;2023-02-28T00:32:49;3.80;;;3.50;;
9763;SDS011;4921;43.214;27.936;2023-02-28T00:35:16;3.30;;;3.10;;
9763;SDS011;4921;43.214;27.936;2023-02-28T00:37:43;3.60;;;3.40;;
9763;SDS011;4921;43.214;27.936;2023-02-28T00:40:11;3.37;;;3.17;;
9763;SDS011;4921;43.214;27.936;2023-02-28T00:42:38;3.57;;;3.37;;
9763;SDS011;4921;43.214;27.936;2023-02-28T00:45:06;3.87;;;3.67;;
9763;SDS011;4921;43.214;27.936;2023-02-28T00:47:33;3.43;;;3.23;;
9763;SDS011;4921;43.214;27.936;2023-02-28T00:50:02;3.57;;;3.37;;
9763;SDS011;4921;43.214;27.936;2023-02-28T00:52:30;3.90;;;3.60;;
9763;SDS011;4921;43.214;27.936;2023-02-28T00:54:57;3.50;;;3.20;;
9763;SDS011;4921;43.214;27.936;2023-02-28T00:57:24;3.33;;;3.13;;
9763;SDS011;4921;43.214;27.936;2023-02-28T00:59:51;3.77;;;3.57;;
9763;SDS011;4921;43.214;27.936;2023-02-28T01:02:19;3.43;;;3.20;;
9763;SDS011;4921;43.214;27.936;2023-02-28T01:04:47;3.83;;;3.60;;
9763;SDS011;4921;43.214;27.936;2023-02-28T01:07:15;3.63;;;3.43;;
9763;SDS011;4921;43.214;27.936;2023-02-28T01:09:42;3.50;;;3.30;;
9763;SDS011;4921;43.214;27.936;2023-02-28T01:12:09;3.60;;;3.30;;
9763;SDS011;4921;43.214;27.936;2023-02-28T01:14:36;3.63;;;3.43;;
9763;SDS011;4921;43.214;27.936;2023-02-28T01:17:04;3.60;;;3.30;;
9763;SDS011;4921;43.214;27.936;2023-02-28T01:19:31;3.20;;;3.00;;
9763;SDS011;4921;43.214;27.936;2023-02-28T01:22:00;3.57;;;3.30;;
9763;SDS011;4921;43.214;27.936;2023-02-28T01:24:28;3.63;;;3.37;;
9763;SDS011;4921;43.214;27.936;2023-02-28T01:26:56;3.83;;;3.63;;
9763;SDS011;4921;43.214;27.936;2023-02-28T01:29:23;3.93;;;3.67;;
9763;SDS011;4921;43.214;27.936;2023-02-28T01:31:50;4.03;;;3.73;;
9763;SDS011;4921;43.214;27.936;2023-02-28T01:34:17;3.50;;;3.30;;
9763;SDS011;4921;43.214;27.936;2023-02-28T01:36:44;3.70;;;3.50;;
9763;SDS011;4921;43.214;27.936;2023-02-28T01:39:11;4.27;;;3.97;;
9763;SDS011;4921;43.214;27.936;2023-02-28T01:41:40;4.37;;;4.07;;
9763;SDS011;4921;43.214;27.936;2023-02-28T01:47:08;4.00;;;3.70;;
9763;SDS011;4921;43.214;27.936;2023-02-28T01:49:35;4.60;;;4.30;;
9763;SDS011;4921;43.214;27.936;2023-02-28T01:52:03;4.57;;;4.20;;
9763;SDS011;4921;43.214;27.936;2023-02-28T01:54:30;4.63;;;4.23;;
9763;SDS011;4921;43.214;27.936;2023-02-28T01:57:02;4.90;;;4.60;;
9763;SDS011;4921;43.214;27.936;2023-02-28T01:59:35;5.00;;;4.60;;
9763;SDS011;4921;43.214;27.936;2023-02-28T02:02:11;4.97;;;4.57;;
9763;SDS011;4921;43.214;27.936;2023-02-28T02:04:39;5.53;;;5.03;;
9763;SDS011;4921;43.214;27.936;2023-02-28T02:07:12;5.13;;;4.73;;
9763;SDS011;4921;43.214;27.936;2023-02-28T02:09:40;5.47;;;5.03;;
9763;SDS011;4921;43.214;27.936;2023-02-28T02:12:10;5.63;;;5.23;;
9763;SDS011;4921;43.214;27.936;2023-02-28T02:14:54;5.10;;;4.70;;
9763;SDS011;4921;43.214;27.936;2023-02-28T02:17:31;5.27;;;4.87;;
9763;SDS011;4921;43.214;27.936;2023-02-28T02:20:15;5.17;;;4.77;;
9763;SDS011;4921;43.214;27.936;2023-02-28T02:23:02;4.57;;;4.27;;
9763;SDS011;4921;43.214;27.936;2023-02-28T02:25:52;4.00;;;3.70;;
9763;SDS011;4921;43.214;27.936;2023-02-28T02:28:33;3.60;;;3.40;;
9763;SDS011;4921;43.214;27.936;2023-02-28T02:31:29;3.93;;;3.63;;
9763;SDS011;4921;43.214;27.936;2023-02-28T02:34:18;3.60;;;3.40;;
9763;SDS011;4921;43.214;27.936;2023-02-28T02:37:00;3.37;;;3.17;;
9763;SDS011;4921;43.214;27.936;2023-02-28T02:39:36;3.30;;;3.10;;
9763;SDS011;4921;43.214;27.936;2023-02-28T02:42:11;3.67;;;3.47;;
9763;SDS011;4921;43.214;27.936;2023-02-28T02:44:43;3.60;;;3.40;;
9763;SDS011;4921;43.214;27.936;2023-02-28T02:47:15;3.37;;;3.07;;
9763;SDS011;4921;43.214;27.936;2023-02-28T02:49:48;3.50;;;3.30;;
9763;SDS011;4921;43.214;27.936;2023-02-28T02:52:20;3.33;;;3.13;;
9763;SDS011;4921;43.214;27.936;2023-02-28T02:54:54;3.30;;;3.03;;
9763;SDS011;4921;43.214;27.936;2023-02-28T02:57:24;3.17;;;2.97;;
9763;SDS011;4921;43.214;27.936;2023-02-28T02:59:56;2.73;;;2.53;;
9763;SDS011;4921;43.214;27.936;2023-02-28T03:02:25;3.10;;;2.90;;
9763;SDS011;4921;43.214;27.936;2023-02-28T03:05:01;2.67;;;2.57;;
9763;SDS011;4921;43.214;27.936;2023-02-28T03:07:33;2.80;;;2.70;;
9763;SDS011;4921;43.214;27.936;2023-02-28T03:10:00;2.63;;;2.53;;
9763;SDS011;4921;43.214;27.936;2023-02-28T03:12:33;2.87;;;2.67;;
9763;SDS011;4921;43.214;27.936;2023-02-28T03:15:08;2.50;;;2.40;;
9763;SDS011;4921;43.214;27.936;2023-02-28T03:17:46;2.80;;;2.70;;
9763;SDS011;4921;43.214;27.936;2023-02-28T03:20:23;3.07;;;2.87;;
9763;SDS011;4921;43.214;27.936;2023-02-28T03:23:01;2.53;;;2.43;;
9763;SDS011;4921;43.214;27.936;2023-02-28T03:25:38;3.00;;;2.80;;
9763;SDS011;4921;43.214;27.936;2023-02-28T03:28:17;3.00;;;2.80;;
9763;SDS011;4921;43.214;27.936;2023-02-28T03:30:49;2.80;;;2.67;;
9763;SDS011;4921;43.214;27.936;2023-02-28T03:33:21;4.50;;;3.43;;
9763;SDS011;4921;43.214;27.936;2023-02-28T03:35:55;3.77;;;3.47;;
9763;SDS011;4921;43.214;27.936;2023-02-28T03:38:27;3.40;;;3.20;;
9763;SDS011;4921;43.214;27.936;2023-02-28T03:41:00;3.93;;;3.67;;
9763;SDS011;4921;43.214;27.936;2023-02-28T03:43:32;4.20;;;3.90;;
9763;SDS011;4921;43.214;27.936;2023-02-28T03:46:06;3.60;;;3.40;;
9763;SDS011;4921;43.214;27.936;2023-02-28T03:48:37;3.63;;;3.43;;
9763;SDS011;4921;43.214;27.936;2023-02-28T03:51:09;3.90;;;3.60;;
9763;SDS011;4921;43.214;27.936;2023-02-28T03:53:42;3.60;;;3.40;;
9763;SDS011;4921;43.214;27.936;2023-02-28T03:56:12;4.27;;;3.97;;
9763;SDS011;4921;43.214;27.936;2023-02-28T03:58:44;4.50;;;4.20;;
9763;SDS011;4921;43.214;27.936;2023-02-28T04:01:16;4.47;;;4.17;;
9763;SDS011;4921;43.214;27.936;2023-02-28T04:03:49;4.60;;;4.30;;
9763;SDS011;4921;43.214;27.936;2023-02-28T04:06:18;4.90;;;4.50;;
9763;SDS011;4921;43.214;27.936;2023-02-28T04:08:47;4.80;;;4.50;;
9763;SDS011;4921;43.214;27.936;2023-02-28T04:11:19;4.83;;;4.43;;
9763;SDS011;4921;43.214;27.936;2023-02-28T04:13:48;5.07;;;4.57;;
9763;SDS011;4921;43.214;27.936;2023-02-28T04:16:15;5.13;;;4.73;;
9763;SDS011;4921;43.214;27.936;2023-02-28T04:18:42;4.90;;;4.60;;
9763;SDS011;4921;43.214;27.936;2023-02-28T04:21:09;4.70;;;4.40;;
9763;SDS011;4921;43.214;27.936;2023-02-28T04:23:38;5.43;;;4.90;;
9763;SDS011;4921;43.214;27.936;2023-02-28T04:26:06;5.83;;;5.17;;
9763;SDS011;4921;43.214;27.936;2023-02-28T04:28:33;5.33;;;4.47;;
9763;SDS011;4921;43.214;27.936;2023-02-28T04:31:01;5.63;;;4.83;;
9763;SDS011;4921;43.214;27.936;2023-02-28T04:33:30;5.27;;;4.87;;
9763;SDS011;4921;43.214;27.936;2023-02-28T04:35:58;5.43;;;5.03;;
9763;SDS011;4921;43.214;27.936;2023-02-28T04:38:26;5.27;;;4.87;;
9763;SDS011;4921;43.214;27.936;2023-02-28T04:40:56;8.37;;;5.87;;
9763;SDS011;4921;43.214;27.936;2023-02-28T04:43:23;4.67;;;4.27;;
9763;SDS011;4921;43.214;27.936;2023-02-28T04:45:51;5.37;;;4.97;;
9763;SDS011;4921;43.214;27.936;2023-02-28T04:48:19;5.43;;;5.03;;
9763;SDS011;4921;43.214;27.936;2023-02-28T04:50:46;6.63;;;6.03;;
9763;SDS011;4921;43.214;27.936;2023-02-28T04:53:13;5.97;;;5.47;;
9763;SDS011;4921;43.214;27.936;2023-02-28T04:55:40;6.70;;;6.10;;
9763;SDS011;4921;43.214;27.936;2023-02-28T04:58:08;6.80;;;6.20;;
9763;SDS011;4921;43.214;27.936;2023-02-28T05:00:36;7.83;;;7.13;;
9763;SDS011;4921;43.214;27.936;2023-02-28T05:03:03;7.40;;;6.70;;
9763;SDS011;4921;43.214;27.936;2023-02-28T05:05:30;7.53;;;6.83;;
9763;SDS011;4921;43.214;27.936;2023-02-28T05:07:57;7.73;;;7.03;;
9763;SDS011;4921;43.214;27.936;2023-02-28T05:10:24;9.50;;;8.53;;
9763;SDS011;4921;43.214;27.936;2023-02-28T05:12:51;10.10;;;8.83;;
9763;SDS011;4921;43.214;27.936;2023-02-28T05:15:19;11.23;;;10.07;;
9763;SDS011;4921;43.214;27.936;2023-02-28T05:17:47;9.73;;;8.77;;
9763;SDS011;4921;43.214;27.936;2023-02-28T05:20:13;10.27;;;9.00;;
9763;SDS011;4921;43.214;27.936;2023-02-28T05:22:41;10.40;;;9.17;;
9763;SDS011;4921;43.214;27.936;2023-02-28T05:25:08;11.00;;;9.17;;
9763;SDS011;4921;43.214;27.936;2023-02-28T05:27:38;12.00;;;10.20;;
9763;SDS011;4921;43.214;27.936;2023-02-28T05:30:06;12.10;;;10.93;;
9763;SDS011;4921;43.214;27.936;2023-02-28T05:32:37;14.00;;;10.23;;
9763;SDS011;4921;43.214;27.936;2023-02-28T05:35:04;12.80;;;11.30;;
9763;SDS011;4921;43.214;27.936;2023-02-28T05:37:32;18.40;;;13.73;;
9763;SDS011;4921;43.214;27.936;2023-02-28T05:39:59;12.77;;;10.57;;
9763;SDS011;4921;43.214;27.936;2023-02-28T05:42:26;12.20;;;10.97;;
9763;SDS011;4921;43.214;27.936;2023-02-28T05:44:53;11.90;;;10.23;;
9763;SDS011;4921;43.214;27.936;2023-02-28T05:47:20;14.17;;;11.30;;
9763;SDS011;4921;43.214;27.936;2023-02-28T05:49:48;11.33;;;10.23;;
9763;SDS011;4921;43.214;27.936;2023-02-28T05:52:15;12.07;;;10.87;;
9763;SDS011;4921;43.214;27.936;2023-02-28T05:54:42;12.97;;;10.97;;
9763;SDS011;4921;43.214;27.936;2023-02-28T05:57:09;13.40;;;11.07;;
9763;SDS011;4921;43.214;27.936;2023-02-28T05:59:36;12.90;;;11.60;;
9763;SDS011;4921;43.214;27.936;2023-02-28T06:02:05;18.23;;;12.30;;
9763;SDS011;4921;43.214;27.936;2023-02-28T06:04:32;13.47;;;11.90;;
9763;SDS011;4921;43.214;27.936;2023-02-28T06:07:00;16.10;;;12.50;;
9763;SDS011;4921;43.214;27.936;2023-02-28T06:09:28;16.87;;;13.27;;
9763;SDS011;4921;43.214;27.936;2023-02-28T06:11:57;14.67;;;12.43;;
9763;SDS011;4921;43.214;27.936;2023-02-28T06:14:24;15.33;;;13.63;;
9763;SDS011;4921;43.214;27.936;2023-02-28T06:16:52;15.83;;;13.10;;
9763;SDS011;4921;43.214;27.936;2023-02-28T06:19:18;14.30;;;12.43;;
9763;SDS011;4921;43.214;27.936;2023-02-28T06:21:48;15.07;;;12.63;;
9763;SDS011;4921;43.214;27.936;2023-02-28T06:24:17;18.10;;;13.73;;
9763;SDS011;4921;43.214;27.936;2023-02-28T06:26:44;14.07;;;11.37;;
9763;SDS011;4921;43.214;27.936;2023-02-28T06:29:11;12.80;;;11.50;;
9763;SDS011;4921;43.214;27.936;2023-02-28T06:31:42;11.50;;;10.37;;
9763;SDS011;4921;43.214;27.936;2023-02-28T06:34:09;11.90;;;10.70;;
9763;SDS011;4921;43.214;27.936;2023-02-28T06:36:37;11.40;;;10.30;;
9763;SDS011;4921;43.214;27.936;2023-02-28T06:39:04;12.67;;;9.97;;
9763;SDS011;4921;43.214;27.936;2023-02-28T06:41:32;12.83;;;10.87;;
9763;SDS011;4921;43.214;27.936;2023-02-28T06:44:02;14.63;;;10.20;;
9763;SDS011;4921;43.214;27.936;2023-02-28T06:46:31;12.63;;;10.37;;
9763;SDS011;4921;43.214;27.936;2023-02-28T06:48:58;15.17;;;11.17;;
9763;SDS011;4921;43.214;27.936;2023-02-28T06:51:25;15.67;;;12.80;;
9763;SDS011;4921;43.214;27.936;2023-02-28T06:53:52;13.67;;;11.30;;
9763;SDS011;4921;43.214;27.936;2023-02-28T06:56:19;12.03;;;10.83;;
9763;SDS011;4921;43.214;27.936;2023-02-28T06:58:48;13.33;;;11.00;;
9763;SDS011;4921;43.214;27.936;2023-02-28T07:01:18;12.67;;;11.20;;
9763;SDS011;4921;43.214;27.936;2023-02-28T07:03:45;10.97;;;9.87;;
9763;SDS011;4921;43.214;27.936;2023-02-28T07:06:17;12.87;;;11.37;;
9763;SDS011;4921;43.214;27.936;2023-02-28T07:08:44;12.37;;;11.07;;
9763;SDS011;4921;43.214;27.936;2023-02-28T07:11:11;13.50;;;12.10;;
9763;SDS011;4921;43.214;27.936;2023-02-28T07:13:38;14.10;;;12.07;;
9763;SDS011;4921;43.214;27.936;2023-02-28T07:16:07;13.00;;;11.37;;
9763;SDS011;4921;43.214;27.936;2023-02-28T07:18:37;11.07;;;9.97;;
9763;SDS011;4921;43.214;27.936;2023-02-28T07:21:04;12.47;;;9.63;;
9763;SDS011;4921;43.214;27.936;2023-02-28T07:23:33;10.47;;;9.47;;
9763;SDS011;4921;43.214;27.936;2023-02-28T07:26:00;11.67;;;10.47;;
9763;SDS011;4921;43.214;27.936;2023-02-28T07:28:27;13.33;;;10.10;;
9763;SDS011;4921;43.214;27.936;2023-02-28T07:30:54;9.87;;;8.87;;
9763;SDS011;4921;43.214;27.936;2023-02-28T07:33:22;9.80;;;8.80;;
9763;SDS011;4921;43.214;27.936;2023-02-28T07:35:50;9.00;;;8.03;;
9763;SDS011;4921;43.214;27.936;2023-02-28T07:38:17;8.73;;;7.93;;
9763;SDS011;4921;43.214;27.936;2023-02-28T07:40:44;8.70;;;7.80;;
9763;SDS011;4921;43.214;27.936;2023-02-28T07:43:11;8.00;;;7.20;;
9763;SDS011;4921;43.214;27.936;2023-02-28T07:45:38;7.30;;;6.60;;
9763;SDS011;4921;43.214;27.936;2023-02-28T07:48:05;7.03;;;6.33;;
9763;SDS011;4921;43.214;27.936;2023-02-28T07:50:36;7.13;;;6.53;;
9763;SDS011;4921;43.214;27.936;2023-02-28T07:53:03;7.27;;;6.57;;
9763;SDS011;4921;43.214;27.936;2023-02-28T07:55:30;7.90;;;6.40;;
9763;SDS011;4921;43.214;27.936;2023-02-28T07:57:57;8.97;;;6.70;;
9763;SDS011;4921;43.214;27.936;2023-02-28T08:00:25;7.77;;;6.70;;
9763;SDS011;4921;43.214;27.936;2023-02-28T08:02:51;7.13;;;6.53;;
9763;SDS011;4921;43.214;27.936;2023-02-28T08:05:18;7.50;;;6.80;;
9763;SDS011;4921;43.214;27.936;2023-02-28T08:07:48;7.00;;;6.40;;
9763;SDS011;4921;43.214;27.936;2023-02-28T08:10:15;6.47;;;5.67;;
9763;SDS011;4921;43.214;27.936;2023-02-28T08:12:42;6.53;;;5.70;;
9763;SDS011;4921;43.214;27.936;2023-02-28T08:15:09;6.70;;;6.10;;
9763;SDS011;4921;43.214;27.936;2023-02-28T08:17:36;6.77;;;6.17;;
9763;SDS011;4921;43.214;27.936;2023-02-28T08:20:04;6.70;;;6.00;;
9763;SDS011;4921;43.214;27.936;2023-02-28T08:22:32;6.20;;;5.70;;
9763;SDS011;4921;43.214;27.936;2023-02-28T08:25:00;5.70;;;5.10;;
9763;SDS011;4921;43.214;27.936;2023-02-28T08:27:27;6.30;;;5.70;;
9763;SDS011;4921;43.214;27.936;2023-02-28T08:29:54;6.43;;;5.83;;
9763;SDS011;4921;43.214;27.936;2023-02-28T08:32:21;7.47;;;5.80;;
9763;SDS011;4921;43.214;27.936;2023-02-28T08:34:48;7.10;;;6.20;;
9763;SDS011;4921;43.214;27.936;2023-02-28T08:37:15;6.67;;;6.07;;
9763;SDS011;4921;43.214;27.936;2023-02-28T08:39:42;8.73;;;7.13;;
9763;SDS011;4921;43.214;27.936;2023-02-28T08:42:10;7.53;;;6.73;;
9763;SDS011;4921;43.214;27.936;2023-02-28T08:44:37;9.13;;;7.27;;
9763;SDS011;4921;43.214;27.936;2023-02-28T08:47:05;8.27;;;7.47;;
9763;SDS011;4921;43.214;27.936;2023-02-28T08:49:32;7.97;;;7.13;;
9763;SDS011;4921;43.214;27.936;2023-02-28T08:51:59;7.50;;;6.90;;
9763;SDS011;4921;43.214;27.936;2023-02-28T08:54:26;7.80;;;7.10;;
9763;SDS011;4921;43.214;27.936;2023-02-28T08:56:55;7.07;;;6.40;;
9763;SDS011;4921;43.214;27.936;2023-02-28T08:59:24;7.50;;;6.40;;
9763;SDS011;4921;43.214;27.936;2023-02-28T09:01:51;7.33;;;6.00;;
9763;SDS011;4921;43.214;27.936;2023-02-28T09:04:18;6.63;;;5.40;;
9763;SDS011;4921;43.214;27.936;2023-02-28T09:06:45;6.83;;;6.20;;
9763;SDS011;4921;43.214;27.936;2023-02-28T09:09:13;6.17;;;5.60;;
9763;SDS011;4921;43.214;27.936;2023-02-28T09:11:40;7.63;;;6.10;;
9763;SDS011;4921;43.214;27.936;2023-02-28T09:14:08;6.53;;;5.57;;
9763;SDS011;4921;43.214;27.936;2023-02-28T09:16:36;6.97;;;5.60;;
9763;SDS011;4921;43.214;27.936;2023-02-28T09:19:03;5.57;;;5.17;;
9763;SDS011;4921;43.214;27.936;2023-02-28T09:21:30;6.00;;;5.50;;
9763;SDS011;4921;43.214;27.936;2023-02-28T09:23:57;7.40;;;5.80;;
9763;SDS011;4921;43.214;27.936;2023-02-28T09:26:25;6.57;;;5.90;;
9763;SDS011;4921;43.214;27.936;2023-02-28T09:28:53;8.43;;;6.30;;
9763;SDS011;4921;43.214;27.936;2023-02-28T09:31:21;7.17;;;6.57;;
9763;SDS011;4921;43.214;27.936;2023-02-28T09:33:52;6.50;;;5.90;;
9763;SDS011;4921;43.214;27.936;2023-02-28T09:36:20;7.53;;;6.50;;
9763;SDS011;4921;43.214;27.936;2023-02-28T09:38:48;7.27;;;6.40;;
9763;SDS011;4921;43.214;27.936;2023-02-28T09:41:17;7.67;;;6.50;;
9763;SDS011;4921;43.214;27.936;2023-02-28T09:43:46;6.97;;;6.27;;
9763;SDS011;4921;43.214;27.936;2023-02-28T09:46:19;6.80;;;6.20;;
9763;SDS011;4921;43.214;27.936;2023-02-28T09:48:55;6.97;;;6.37;;
9763;SDS011;4921;43.214;27.936;2023-02-28T09:51:27;7.57;;;5.90;;
9763;SDS011;4921;43.214;27.936;2023-02-28T09:54:01;6.87;;;6.17;;
9763;SDS011;4921;43.214;27.936;2023-02-28T09:56:30;7.30;;;6.63;;
9763;SDS011;4921;43.214;27.936;2023-02-28T09:59:04;7.03;;;6.33;;
9763;SDS011;4921;43.214;27.936;2023-02-28T10:01:42;6.50;;;6.00;;
9763;SDS011;4921;43.214;27.936;2023-02-28T10:04:22;6.93;;;6.10;;
9763;SDS011;4921;43.214;27.936;2023-02-28T10:07:10;7.43;;;6.23;;
9763;SDS011;4921;43.214;27.936;2023-02-28T10:09:45;7.27;;;6.57;;
9763;SDS011;4921;43.214;27.936;2023-02-28T10:12:16;7.97;;;6.03;;
9763;SDS011;4921;43.214;27.936;2023-02-28T10:14:45;7.57;;;6.63;;
9763;SDS011;4921;43.214;27.936;2023-02-28T10:17:16;7.17;;;6.43;;
9763;SDS011;4921;43.214;27.936;2023-02-28T10:19:50;7.07;;;6.37;;
9763;SDS011;4921;43.214;27.936;2023-02-28T10:22:25;6.30;;;5.80;;
9763;SDS011;4921;43.214;27.936;2023-02-28T10:24:56;7.47;;;5.87;;
9763;SDS011;4921;43.214;27.936;2023-02-28T10:27:29;5.83;;;5.33;;
9763;SDS011;4921;43.214;27.936;2023-02-28T10:29:58;7.27;;;6.57;;
9763;SDS011;4921;43.214;27.936;2023-02-28T10:32:27;17.80;;;13.93;;
9763;SDS011;4921;43.214;27.936;2023-02-28T10:34:59;7.13;;;5.57;;
9763;SDS011;4921;43.214;27.936;2023-02-28T10:37:32;6.97;;;5.77;;
9763;SDS011;4921;43.214;27.936;2023-02-28T10:40:03;8.13;;;6.60;;
9763;SDS011;4921;43.214;27.936;2023-02-28T10:42:32;5.43;;;5.03;;
9763;SDS011;4921;43.214;27.936;2023-02-28T10:45:04;7.13;;;5.90;;
9763;SDS011;4921;43.214;27.936;2023-02-28T10:47:33;5.87;;;5.37;;
9763;SDS011;4921;43.214;27.936;2023-02-28T10:50:08;5.93;;;5.43;;
9763;SDS011;4921;43.214;27.936;2023-02-28T10:53:04;6.00;;;5.40;;
9763;SDS011;4921;43.214;27.936;2023-02-28T10:55:40;8.07;;;6.37;;
9763;SDS011;4921;43.214;27.936;2023-02-28T10:58:18;7.60;;;6.53;;
9763;SDS011;4921;43.214;27.936;2023-02-28T11:00:47;6.27;;;5.67;;
9763;SDS011;4921;43.214;27.936;2023-02-28T11:03:23;8.83;;;6.20;;
9763;SDS011;4921;43.214;27.936;2023-02-28T11:05:53;7.20;;;6.23;;
9763;SDS011;4921;43.214;27.936;2023-02-28T11:08:20;8.73;;;6.33;;
9763;SDS011;4921;43.214;27.936;2023-02-28T11:10:47;7.70;;;6.90;;
9763;SDS011;4921;43.214;27.936;2023-02-28T11:13:24;6.87;;;6.27;;
9763;SDS011;4921;43.214;27.936;2023-02-28T11:15:54;6.93;;;6.37;;
9763;SDS011;4921;43.214;27.936;2023-02-28T11:18:24;8.07;;;7.27;;
9763;SDS011;4921;43.214;27.936;2023-02-28T11:20:57;7.40;;;6.73;;
9763;SDS011;4921;43.214;27.936;2023-02-28T11:23:26;7.30;;;6.53;;
9763;SDS011;4921;43.214;27.936;2023-02-28T11:25:57;9.47;;;6.80;;
9763;SDS011;4921;43.214;27.936;2023-02-28T11:28:27;8.03;;;7.23;;
9763;SDS011;4921;43.214;27.936;2023-02-28T11:31:00;8.80;;;6.97;;
9763;SDS011;4921;43.214;27.936;2023-02-28T11:33:37;7.87;;;7.07;;
9763;SDS011;4921;43.214;27.936;2023-02-28T11:36:12;7.70;;;6.90;;
9763;SDS011;4921;43.214;27.936;2023-02-28T11:38:40;8.93;;;7.07;;
9763;SDS011;4921;43.214;27.936;2023-02-28T11:41:12;8.73;;;7.20;;
9763;SDS011;4921;43.214;27.936;2023-02-28T11:43:57;7.50;;;6.70;;
9763;SDS011;4921;43.214;27.936;2023-02-28T11:46:47;7.83;;;7.00;;
9763;SDS011;4921;43.214;27.936;2023-02-28T11:49:30;6.63;;;6.03;;
9763;SDS011;4921;43.214;27.936;2023-02-28T11:52:06;9.40;;;6.97;;
9763;SDS011;4921;43.214;27.936;2023-02-28T12:00:35;7.73;;;6.93;;
9763;SDS011;4921;43.214;27.936;2023-02-28T12:03:10;5.97;;;5.37;;
9763;SDS011;4921;43.214;27.936;2023-02-28T12:05:52;7.03;;;6.30;;
9763;SDS011;4921;43.214;27.936;2023-02-28T12:08:30;6.87;;;6.00;;
9763;SDS011;4921;43.214;27.936;2023-02-28T12:11:10;7.80;;;6.93;;
9763;SDS011;4921;43.214;27.936;2023-02-28T12:13:46;7.90;;;6.63;;
9763;SDS011;4921;43.214;27.936;2023-02-28T12:16:34;8.33;;;7.00;;
9763;SDS011;4921;43.214;27.936;2023-02-28T12:19:16;7.87;;;7.07;;
9763;SDS011;4921;43.214;27.936;2023-02-28T12:21:57;7.67;;;6.53;;
9763;SDS011;4921;43.214;27.936;2023-02-28T12:24:43;9.33;;;7.20;;
9763;SDS011;4921;43.214;27.936;2023-02-28T12:27:21;8.73;;;6.77;;
9763;SDS011;4921;43.214;27.936;2023-02-28T12:29:52;7.17;;;6.47;;
9763;SDS011;4921;43.214;27.936;2023-02-28T12:32:23;7.27;;;6.67;;
9763;SDS011;4921;43.214;27.936;2023-02-28T12:34:56;7.93;;;6.97;;
9763;SDS011;4921;43.214;27.936;2023-02-28T12:37:27;8.93;;;7.17;;
9763;SDS011;4921;43.214;27.936;2023-02-28T12:40:02;10.63;;;7.37;;
9763;SDS011;4921;43.214;27.936;2023-02-28T12:42:36;9.10;;;7.63;;
9763;SDS011;4921;43.214;27.936;2023-02-28T12:45:09;7.90;;;7.10;;
9763;SDS011;4921;43.214;27.936;2023-02-28T12:47:42;9.90;;;7.40;;
9763;SDS011;4921;43.214;27.936;2023-02-28T12:50:11;8.07;;;7.13;;
9763;SDS011;4921;43.214;27.936;2023-02-28T12:52:40;7.47;;;6.80;;
9763;SDS011;4921;43.214;27.936;2023-02-28T12:55:17;7.87;;;7.07;;
9763;SDS011;4921;43.214;27.936;2023-02-28T12:57:52;8.00;;;7.20;;
9763;SDS011;4921;43.214;27.936;2023-02-28T13:00:28;11.37;;;7.87;;
9763;SDS011;4921;43.214;27.936;2023-02-28T13:03:10;10.33;;;7.20;;
9763;SDS011;4921;43.214;27.936;2023-02-28T13:08:59;8.80;;;7.90;;
9763;SDS011;4921;43.214;27.936;2023-02-28T13:11:33;9.10;;;8.23;;
9763;SDS011;4921;43.214;27.936;2023-02-28T13:14:20;11.20;;;8.17;;
9763;SDS011;4921;43.214;27.936;2023-02-28T13:16:54;9.70;;;8.70;;
9763;SDS011;4921;43.214;27.936;2023-02-28T13:19:24;12.33;;;10.23;;
9763;SDS011;4921;43.214;27.936;2023-02-28T13:21:53;9.87;;;8.87;;
9763;SDS011;4921;43.214;27.936;2023-02-28T13:24:41;11.97;;;8.77;;
9763;SDS011;4921;43.214;27.936;2023-02-28T13:27:20;11.30;;;8.80;;
9763;SDS011;4921;43.214;27.936;2023-02-28T13:29:50;9.27;;;8.37;;
9763;SDS011;4921;43.214;27.936;2023-02-28T13:35:14;11.40;;;8.17;;
9763;SDS011;4921;43.214;27.936;2023-02-28T13:40:48;11.90;;;9.07;;
9763;SDS011;4921;43.214;27.936;2023-02-28T13:43:17;10.53;;;8.87;;
9763;SDS011;4921;43.214;27.936;2023-02-28T13:48:37;11.33;;;9.87;;
9763;SDS011;4921;43.214;27.936;2023-02-28T13:54:24;12.90;;;9.67;;
9763;SDS011;4921;43.214;27.936;2023-02-28T13:57:08;11.70;;;9.47;;
9763;SDS011;4921;43.214;27.936;2023-02-28T13:59:52;11.20;;;9.57;;
9763;SDS011;4921;43.214;27.936;2023-02-28T14:02:35;11.57;;;9.97;;
9763;SDS011;4921;43.214;27.936;2023-02-28T14:05:14;11.93;;;9.87;;
9763;SDS011;4921;43.214;27.936;2023-02-28T14:07:44;14.47;;;9.77;;
9763;SDS011;4921;43.214;27.936;2023-02-28T14:10:24;11.57;;;9.80;;
9763;SDS011;4921;43.214;27.936;2023-02-28T14:12:58;14.43;;;9.40;;
9763;SDS011;4921;43.214;27.936;2023-02-28T14:15:47;12.40;;;10.43;;
9763;SDS011;4921;43.214;27.936;2023-02-28T14:18:23;12.70;;;9.53;;
9763;SDS011;4921;43.214;27.936;2023-02-28T14:21:01;11.50;;;9.70;;
9763;SDS011;4921;43.214;27.936;2023-02-28T14:29:51;14.97;;;9.43;;
9763;SDS011;4921;43.214;27.936;2023-02-28T14:32:35;11.90;;;9.33;;
9763;SDS011;4921;43.214;27.936;2023-02-28T14:35:12;14.93;;;9.90;;
9763;SDS011;4921;43.214;27.936;2023-02-28T14:37:48;10.90;;;9.37;;
9763;SDS011;4921;43.214;27.936;2023-02-28T14:40:16;11.03;;;9.30;;
9763;SDS011;4921;43.214;27.936;2023-02-28T14:42:48;12.60;;;9.73;;
9763;SDS011;4921;43.214;27.936;2023-02-28T14:45:22;11.97;;;9.87;;
9763;SDS011;4921;43.214;27.936;2023-02-28T14:47:51;13.03;;;10.10;;
9763;SDS011;4921;43.214;27.936;2023-02-28T14:50:19;9.87;;;8.73;;
9763;SDS011;4921;43.214;27.936;2023-02-28T14:52:50;11.10;;;8.60;;
9763;SDS011;4921;43.214;27.936;2023-02-28T14:55:19;18.13;;;9.93;;
9763;SDS011;4921;43.214;27.936;2023-02-28T14:57:51;12.67;;;9.23;;
9763;SDS011;4921;43.214;27.936;2023-02-28T15:00:22;12.87;;;9.37;;
9763;SDS011;4921;43.214;27.936;2023-02-28T15:02:52;13.40;;;9.53;;
9763;SDS011;4921;43.214;27.936;2023-02-28T15:05:24;12.80;;;9.00;;
9763;SDS011;4921;43.214;27.936;2023-02-28T15:08:04;11.90;;;8.43;;
9763;SDS011;4921;43.214;27.936;2023-02-28T15:10:37;11.47;;;8.73;;
9763;SDS011;4921;43.214;27.936;2023-02-28T15:13:05;11.57;;;8.60;;
9763;SDS011;4921;43.214;27.936;2023-02-28T15:15:45;9.90;;;8.80;;
9763;SDS011;4921;43.214;27.936;2023-02-28T15:18:24;10.33;;;8.93;;
9763;SDS011;4921;43.214;27.936;2023-02-28T15:20:57;12.80;;;10.17;;
9763;SDS011;4921;43.214;27.936;2023-02-28T15:23:28;14.37;;;9.97;;
9763;SDS011;4921;43.214;27.936;2023-02-28T15:25:56;12.47;;;9.00;;
9763;SDS011;4921;43.214;27.936;2023-02-28T15:28:25;13.87;;;8.87;;
9763;SDS011;4921;43.214;27.936;2023-02-28T15:30:53;14.93;;;9.67;;
9763;SDS011;4921;43.214;27.936;2023-02-28T15:33:25;13.00;;;9.73;;
9763;SDS011;4921;43.214;27.936;2023-02-28T15:36:03;11.87;;;9.33;;
9763;SDS011;4921;43.214;27.936;2023-02-28T15:38:33;12.57;;;9.23;;
9763;SDS011;4921;43.214;27.936;2023-02-28T15:41:02;11.13;;;9.57;;
9763;SDS011;4921;43.214;27.936;2023-02-28T15:43:34;13.00;;;9.70;;
9763;SDS011;4921;43.214;27.936;2023-02-28T15:46:02;13.73;;;9.67;;
9763;SDS011;4921;43.214;27.936;2023-02-28T15:48:33;13.03;;;10.33;;